Terminal Aerodrome Forecast
Issued by NWS Cleveland, OH

Home | Current Version | Previous Version | Text Only | Print | Product List | Glossary Off
Versions: 1 2 3 4 5 6 7 8 9 10 11 12 13 14

000
FTUS41 KCLE 221000 AAA
TAFYNG
TAF AMD
KYNG 221036Z 2211/2306 24006KT P6SM VCSH BKN080
      TEMPO 2211/2213 -SHRA BKN060
     FM221600 30012G20KT P6SM SCT050
     FM222300 VRB05KT P6SM SKC=

USA.gov is the U.S. government's official web portal to all federal, state and local government web resources and services.